sensor_id;sensor_type;location;lat;lon;timestamp;P1;durP1;ratioP1;P2;durP2;ratioP2
22070;SDS011;11200;51.488;6.668;2024-03-06T00:01:42;6.93;;;5.95;;
22070;SDS011;11200;51.488;6.668;2024-03-06T00:04:08;7.00;;;5.95;;
22070;SDS011;11200;51.488;6.668;2024-03-06T00:06:34;7.93;;;5.65;;
22070;SDS011;11200;51.488;6.668;2024-03-06T00:09:00;6.93;;;6.18;;
22070;SDS011;11200;51.488;6.668;2024-03-06T00:11:28;7.43;;;5.90;;
22070;SDS011;11200;51.488;6.668;2024-03-06T00:13:54;7.25;;;6.05;;
22070;SDS011;11200;51.488;6.668;2024-03-06T00:16:20;7.30;;;6.03;;
22070;SDS011;11200;51.488;6.668;2024-03-06T00:18:46;7.20;;;5.80;;
22070;SDS011;11200;51.488;6.668;2024-03-06T00:21:12;7.47;;;6.22;;
22070;SDS011;11200;51.488;6.668;2024-03-06T00:23:38;7.75;;;6.18;;
22070;SDS011;11200;51.488;6.668;2024-03-06T00:26:04;7.75;;;6.18;;
22070;SDS011;11200;51.488;6.668;2024-03-06T00:28:30;7.63;;;6.40;;
22070;SDS011;11200;51.488;6.668;2024-03-06T00:30:56;7.22;;;6.07;;
22070;SDS011;11200;51.488;6.668;2024-03-06T00:33:23;8.13;;;6.72;;
22070;SDS011;11200;51.488;6.668;2024-03-06T00:35:49;7.70;;;6.43;;
22070;SDS011;11200;51.488;6.668;2024-03-06T00:38:15;8.50;;;6.63;;
22070;SDS011;11200;51.488;6.668;2024-03-06T00:40:41;8.43;;;6.40;;
22070;SDS011;11200;51.488;6.668;2024-03-06T00:43:07;8.48;;;6.65;;
22070;SDS011;11200;51.488;6.668;2024-03-06T00:45:33;7.63;;;6.18;;
22070;SDS011;11200;51.488;6.668;2024-03-06T00:47:59;9.13;;;7.05;;
22070;SDS011;11200;51.488;6.668;2024-03-06T00:50:25;7.72;;;6.18;;
22070;SDS011;11200;51.488;6.668;2024-03-06T00:52:51;8.30;;;6.78;;
22070;SDS011;11200;51.488;6.668;2024-03-06T00:55:17;9.15;;;7.00;;
22070;SDS011;11200;51.488;6.668;2024-03-06T00:57:42;8.15;;;6.40;;
22070;SDS011;11200;51.488;6.668;2024-03-06T01:00:09;7.57;;;6.47;;
22070;SDS011;11200;51.488;6.668;2024-03-06T01:02:38;9.32;;;7.07;;
22070;SDS011;11200;51.488;6.668;2024-03-06T01:05:04;9.60;;;7.07;;
22070;SDS011;11200;51.488;6.668;2024-03-06T01:07:30;9.48;;;6.90;;
22070;SDS011;11200;51.488;6.668;2024-03-06T01:09:56;7.28;;;6.38;;
22070;SDS011;11200;51.488;6.668;2024-03-06T01:12:25;8.10;;;6.88;;
22070;SDS011;11200;51.488;6.668;2024-03-06T01:14:51;10.45;;;7.30;;
22070;SDS011;11200;51.488;6.668;2024-03-06T01:17:17;9.20;;;7.38;;
22070;SDS011;11200;51.488;6.668;2024-03-06T01:19:43;8.95;;;7.53;;
22070;SDS011;11200;51.488;6.668;2024-03-06T01:22:10;9.20;;;7.13;;
22070;SDS011;11200;51.488;6.668;2024-03-06T01:24:36;8.07;;;6.93;;
22070;SDS011;11200;51.488;6.668;2024-03-06T01:27:02;8.88;;;7.47;;
22070;SDS011;11200;51.488;6.668;2024-03-06T01:29:28;8.73;;;6.95;;
22070;SDS011;11200;51.488;6.668;2024-03-06T01:31:54;8.52;;;7.22;;
22070;SDS011;11200;51.488;6.668;2024-03-06T01:34:20;8.45;;;7.10;;
22070;SDS011;11200;51.488;6.668;2024-03-06T01:36:47;9.48;;;7.60;;
22070;SDS011;11200;51.488;6.668;2024-03-06T01:39:13;8.57;;;7.18;;
22070;SDS011;11200;51.488;6.668;2024-03-06T01:41:49;9.98;;;7.55;;
22070;SDS011;11200;51.488;6.668;2024-03-06T01:44:16;8.70;;;7.22;;
22070;SDS011;11200;51.488;6.668;2024-03-06T01:46:45;9.05;;;7.53;;
22070;SDS011;11200;51.488;6.668;2024-03-06T01:49:12;9.98;;;7.22;;
22070;SDS011;11200;51.488;6.668;2024-03-06T01:51:42;8.65;;;7.53;;
22070;SDS011;11200;51.488;6.668;2024-03-06T01:54:10;9.18;;;7.47;;
22070;SDS011;11200;51.488;6.668;2024-03-06T01:56:37;9.65;;;7.40;;
22070;SDS011;11200;51.488;6.668;2024-03-06T01:59:04;8.95;;;7.25;;
22070;SDS011;11200;51.488;6.668;2024-03-06T02:01:31;10.50;;;7.85;;
22070;SDS011;11200;51.488;6.668;2024-03-06T02:03:58;9.77;;;7.13;;
22070;SDS011;11200;51.488;6.668;2024-03-06T02:06:24;8.57;;;7.45;;
22070;SDS011;11200;51.488;6.668;2024-03-06T02:08:51;8.43;;;7.10;;
22070;SDS011;11200;51.488;6.668;2024-03-06T02:11:17;8.45;;;7.05;;
22070;SDS011;11200;51.488;6.668;2024-03-06T02:13:43;8.75;;;7.45;;
22070;SDS011;11200;51.488;6.668;2024-03-06T02:16:09;9.57;;;7.15;;
22070;SDS011;11200;51.488;6.668;2024-03-06T02:18:35;10.55;;;7.63;;
22070;SDS011;11200;51.488;6.668;2024-03-06T02:21:02;8.93;;;7.13;;
22070;SDS011;11200;51.488;6.668;2024-03-06T02:23:29;9.68;;;7.30;;
22070;SDS011;11200;51.488;6.668;2024-03-06T02:25:55;9.95;;;7.93;;
22070;SDS011;11200;51.488;6.668;2024-03-06T02:28:21;9.77;;;7.10;;
22070;SDS011;11200;51.488;6.668;2024-03-06T02:30:50;9.27;;;7.65;;
22070;SDS011;11200;51.488;6.668;2024-03-06T02:33:16;9.30;;;7.55;;
22070;SDS011;11200;51.488;6.668;2024-03-06T02:35:45;10.27;;;7.47;;
22070;SDS011;11200;51.488;6.668;2024-03-06T02:38:11;8.85;;;6.72;;
22070;SDS011;11200;51.488;6.668;2024-03-06T02:40:37;9.52;;;7.90;;
22070;SDS011;11200;51.488;6.668;2024-03-06T02:43:03;9.45;;;7.20;;
22070;SDS011;11200;51.488;6.668;2024-03-06T02:45:29;9.20;;;7.25;;
22070;SDS011;11200;51.488;6.668;2024-03-06T02:47:55;10.95;;;7.68;;
22070;SDS011;11200;51.488;6.668;2024-03-06T02:50:21;9.65;;;7.22;;
22070;SDS011;11200;51.488;6.668;2024-03-06T02:52:48;8.35;;;6.90;;
22070;SDS011;11200;51.488;6.668;2024-03-06T02:55:16;10.18;;;7.13;;
22070;SDS011;11200;51.488;6.668;2024-03-06T02:57:42;9.55;;;7.68;;
22070;SDS011;11200;51.488;6.668;2024-03-06T03:00:08;10.45;;;7.72;;
22070;SDS011;11200;51.488;6.668;2024-03-06T03:02:38;9.80;;;7.68;;
22070;SDS011;11200;51.488;6.668;2024-03-06T03:05:04;9.45;;;7.38;;
22070;SDS011;11200;51.488;6.668;2024-03-06T03:07:30;9.05;;;6.78;;
22070;SDS011;11200;51.488;6.668;2024-03-06T03:09:57;9.05;;;7.32;;
22070;SDS011;11200;51.488;6.668;2024-03-06T03:12:22;10.40;;;7.78;;
22070;SDS011;11200;51.488;6.668;2024-03-06T03:14:48;10.02;;;7.93;;
22070;SDS011;11200;51.488;6.668;2024-03-06T03:17:14;10.25;;;7.65;;
22070;SDS011;11200;51.488;6.668;2024-03-06T03:19:40;9.57;;;7.82;;
22070;SDS011;11200;51.488;6.668;2024-03-06T03:22:06;10.50;;;7.55;;
22070;SDS011;11200;51.488;6.668;2024-03-06T03:24:34;10.50;;;7.65;;
22070;SDS011;11200;51.488;6.668;2024-03-06T03:27:01;10.35;;;7.70;;
22070;SDS011;11200;51.488;6.668;2024-03-06T03:29:28;10.57;;;7.72;;
22070;SDS011;11200;51.488;6.668;2024-03-06T03:31:54;11.00;;;7.80;;
22070;SDS011;11200;51.488;6.668;2024-03-06T03:34:22;11.38;;;8.43;;
22070;SDS011;11200;51.488;6.668;2024-03-06T03:36:48;10.98;;;8.30;;
22070;SDS011;11200;51.488;6.668;2024-03-06T03:39:14;11.32;;;8.00;;
22070;SDS011;11200;51.488;6.668;2024-03-06T03:41:46;10.75;;;7.57;;
22070;SDS011;11200;51.488;6.668;2024-03-06T03:44:18;11.10;;;8.25;;
22070;SDS011;11200;51.488;6.668;2024-03-06T03:46:44;10.93;;;7.95;;
22070;SDS011;11200;51.488;6.668;2024-03-06T03:49:11;11.02;;;8.55;;
22070;SDS011;11200;51.488;6.668;2024-03-06T03:51:37;11.93;;;8.38;;
22070;SDS011;11200;51.488;6.668;2024-03-06T03:54:04;9.98;;;7.68;;
22070;SDS011;11200;51.488;6.668;2024-03-06T03:56:30;11.18;;;7.68;;
22070;SDS011;11200;51.488;6.668;2024-03-06T03:58:58;11.45;;;8.40;;
22070;SDS011;11200;51.488;6.668;2024-03-06T04:01:24;11.65;;;8.45;;
22070;SDS011;11200;51.488;6.668;2024-03-06T04:03:51;10.15;;;7.97;;
22070;SDS011;11200;51.488;6.668;2024-03-06T04:06:17;10.77;;;8.23;;
22070;SDS011;11200;51.488;6.668;2024-03-06T04:08:43;11.80;;;8.77;;
22070;SDS011;11200;51.488;6.668;2024-03-06T04:11:09;10.77;;;8.60;;
22070;SDS011;11200;51.488;6.668;2024-03-06T04:13:36;12.02;;;8.95;;
22070;SDS011;11200;51.488;6.668;2024-03-06T04:16:03;10.13;;;8.13;;
22070;SDS011;11200;51.488;6.668;2024-03-06T04:18:29;11.48;;;8.90;;
22070;SDS011;11200;51.488;6.668;2024-03-06T04:21:04;11.23;;;8.23;;
22070;SDS011;11200;51.488;6.668;2024-03-06T04:23:31;11.10;;;8.25;;
22070;SDS011;11200;51.488;6.668;2024-03-06T04:25:57;10.50;;;8.10;;
22070;SDS011;11200;51.488;6.668;2024-03-06T04:28:23;11.30;;;8.18;;
22070;SDS011;11200;51.488;6.668;2024-03-06T04:30:49;10.70;;;8.45;;
22070;SDS011;11200;51.488;6.668;2024-03-06T04:33:15;11.35;;;8.88;;
22070;SDS011;11200;51.488;6.668;2024-03-06T04:35:42;13.32;;;10.10;;
22070;SDS011;11200;51.488;6.668;2024-03-06T04:38:08;13.73;;;10.13;;
22070;SDS011;11200;51.488;6.668;2024-03-06T04:40:34;12.10;;;9.05;;
22070;SDS011;11200;51.488;6.668;2024-03-06T04:43:00;13.82;;;9.43;;
22070;SDS011;11200;51.488;6.668;2024-03-06T04:45:26;13.13;;;9.82;;
22070;SDS011;11200;51.488;6.668;2024-03-06T04:47:53;13.70;;;9.52;;
22070;SDS011;11200;51.488;6.668;2024-03-06T04:50:19;12.50;;;9.18;;
22070;SDS011;11200;51.488;6.668;2024-03-06T04:52:46;12.07;;;9.43;;
22070;SDS011;11200;51.488;6.668;2024-03-06T04:55:12;11.85;;;9.00;;
22070;SDS011;11200;51.488;6.668;2024-03-06T04:57:41;11.68;;;9.27;;
22070;SDS011;11200;51.488;6.668;2024-03-06T05:00:08;12.20;;;9.10;;
22070;SDS011;11200;51.488;6.668;2024-03-06T05:02:35;11.77;;;9.20;;
22070;SDS011;11200;51.488;6.668;2024-03-06T05:05:02;12.68;;;9.25;;
22070;SDS011;11200;51.488;6.668;2024-03-06T05:07:28;12.68;;;9.82;;
22070;SDS011;11200;51.488;6.668;2024-03-06T05:09:55;12.55;;;9.90;;
22070;SDS011;11200;51.488;6.668;2024-03-06T05:12:22;13.30;;;9.07;;
22070;SDS011;11200;51.488;6.668;2024-03-06T05:14:49;13.55;;;9.52;;
22070;SDS011;11200;51.488;6.668;2024-03-06T05:17:15;12.93;;;9.52;;
22070;SDS011;11200;51.488;6.668;2024-03-06T05:19:45;13.68;;;9.75;;
22070;SDS011;11200;51.488;6.668;2024-03-06T05:22:14;11.88;;;9.13;;
22070;SDS011;11200;51.488;6.668;2024-03-06T05:24:41;12.38;;;9.07;;
22070;SDS011;11200;51.488;6.668;2024-03-06T05:27:07;12.32;;;9.27;;
22070;SDS011;11200;51.488;6.668;2024-03-06T05:29:35;12.55;;;9.27;;
22070;SDS011;11200;51.488;6.668;2024-03-06T05:32:01;12.57;;;9.52;;
22070;SDS011;11200;51.488;6.668;2024-03-06T05:34:28;13.13;;;9.75;;
22070;SDS011;11200;51.488;6.668;2024-03-06T05:36:54;13.00;;;9.10;;
22070;SDS011;11200;51.488;6.668;2024-03-06T05:39:20;12.57;;;9.30;;
22070;SDS011;11200;51.488;6.668;2024-03-06T05:41:46;12.75;;;9.07;;
22070;SDS011;11200;51.488;6.668;2024-03-06T05:44:12;12.38;;;9.25;;
22070;SDS011;11200;51.488;6.668;2024-03-06T05:46:38;13.13;;;9.65;;
22070;SDS011;11200;51.488;6.668;2024-03-06T05:49:04;12.90;;;9.52;;
22070;SDS011;11200;51.488;6.668;2024-03-06T05:51:31;13.23;;;9.43;;
22070;SDS011;11200;51.488;6.668;2024-03-06T05:53:57;13.95;;;10.30;;
22070;SDS011;11200;51.488;6.668;2024-03-06T05:56:23;13.13;;;10.10;;
22070;SDS011;11200;51.488;6.668;2024-03-06T05:58:49;13.52;;;9.50;;
22070;SDS011;11200;51.488;6.668;2024-03-06T06:01:15;13.93;;;10.15;;
22070;SDS011;11200;51.488;6.668;2024-03-06T06:03:45;12.13;;;9.43;;
22070;SDS011;11200;51.488;6.668;2024-03-06T06:06:11;15.80;;;10.55;;
22070;SDS011;11200;51.488;6.668;2024-03-06T06:08:36;13.07;;;9.75;;
22070;SDS011;11200;51.488;6.668;2024-03-06T06:11:02;13.55;;;9.82;;
22070;SDS011;11200;51.488;6.668;2024-03-06T06:13:29;13.50;;;9.95;;
22070;SDS011;11200;51.488;6.668;2024-03-06T06:15:57;12.63;;;9.57;;
22070;SDS011;11200;51.488;6.668;2024-03-06T06:18:23;14.45;;;10.07;;
22070;SDS011;11200;51.488;6.668;2024-03-06T06:20:49;14.50;;;10.70;;
22070;SDS011;11200;51.488;6.668;2024-03-06T06:23:16;13.43;;;9.98;;
22070;SDS011;11200;51.488;6.668;2024-03-06T06:25:41;12.75;;;9.35;;
22070;SDS011;11200;51.488;6.668;2024-03-06T06:28:07;13.98;;;10.27;;
22070;SDS011;11200;51.488;6.668;2024-03-06T06:30:35;15.10;;;10.55;;
22070;SDS011;11200;51.488;6.668;2024-03-06T06:33:01;13.38;;;9.73;;
22070;SDS011;11200;51.488;6.668;2024-03-06T06:35:27;12.05;;;9.25;;
22070;SDS011;11200;51.488;6.668;2024-03-06T06:37:53;14.73;;;9.60;;
22070;SDS011;11200;51.488;6.668;2024-03-06T06:40:19;14.50;;;10.20;;
22070;SDS011;11200;51.488;6.668;2024-03-06T06:42:47;12.13;;;9.30;;
22070;SDS011;11200;51.488;6.668;2024-03-06T06:45:14;13.60;;;10.13;;
22070;SDS011;11200;51.488;6.668;2024-03-06T06:47:40;13.68;;;9.95;;
22070;SDS011;11200;51.488;6.668;2024-03-06T06:50:07;14.40;;;10.48;;
22070;SDS011;11200;51.488;6.668;2024-03-06T06:52:34;13.52;;;9.98;;
22070;SDS011;11200;51.488;6.668;2024-03-06T06:55:02;12.20;;;9.50;;
22070;SDS011;11200;51.488;6.668;2024-03-06T06:57:29;13.20;;;9.70;;
22070;SDS011;11200;51.488;6.668;2024-03-06T06:59:55;14.13;;;9.98;;
22070;SDS011;11200;51.488;6.668;2024-03-06T07:02:21;12.90;;;9.88;;
22070;SDS011;11200;51.488;6.668;2024-03-06T07:04:47;13.23;;;9.65;;
22070;SDS011;11200;51.488;6.668;2024-03-06T07:07:13;11.52;;;9.00;;
22070;SDS011;11200;51.488;6.668;2024-03-06T07:09:39;14.93;;;9.63;;
22070;SDS011;11200;51.488;6.668;2024-03-06T07:12:05;12.02;;;9.02;;
22070;SDS011;11200;51.488;6.668;2024-03-06T07:14:33;11.73;;;8.82;;
22070;SDS011;11200;51.488;6.668;2024-03-06T07:16:59;12.05;;;8.60;;
22070;SDS011;11200;51.488;6.668;2024-03-06T07:19:25;11.57;;;9.05;;
22070;SDS011;11200;51.488;6.668;2024-03-06T07:21:51;12.93;;;9.38;;
22070;SDS011;11200;51.488;6.668;2024-03-06T07:24:18;12.75;;;9.07;;
22070;SDS011;11200;51.488;6.668;2024-03-06T07:26:44;13.27;;;8.95;;
22070;SDS011;11200;51.488;6.668;2024-03-06T07:29:10;12.65;;;8.85;;
22070;SDS011;11200;51.488;6.668;2024-03-06T07:31:42;12.75;;;9.32;;
22070;SDS011;11200;51.488;6.668;2024-03-06T07:34:09;12.18;;;8.38;;
22070;SDS011;11200;51.488;6.668;2024-03-06T07:36:35;11.85;;;8.50;;
22070;SDS011;11200;51.488;6.668;2024-03-06T07:39:02;12.75;;;8.85;;
22070;SDS011;11200;51.488;6.668;2024-03-06T07:41:28;12.48;;;9.05;;
22070;SDS011;11200;51.488;6.668;2024-03-06T07:43:54;11.43;;;8.60;;
22070;SDS011;11200;51.488;6.668;2024-03-06T07:46:20;12.63;;;9.27;;
22070;SDS011;11200;51.488;6.668;2024-03-06T07:48:46;13.48;;;9.77;;
22070;SDS011;11200;51.488;6.668;2024-03-06T07:51:12;11.82;;;8.60;;
22070;SDS011;11200;51.488;6.668;2024-03-06T07:53:39;14.05;;;9.93;;
22070;SDS011;11200;51.488;6.668;2024-03-06T07:56:05;13.77;;;10.13;;
22070;SDS011;11200;51.488;6.668;2024-03-06T07:58:31;13.40;;;10.20;;
22070;SDS011;11200;51.488;6.668;2024-03-06T08:00:58;14.13;;;10.15;;
22070;SDS011;11200;51.488;6.668;2024-03-06T08:03:25;14.60;;;9.93;;
22070;SDS011;11200;51.488;6.668;2024-03-06T08:05:51;15.10;;;10.45;;
22070;SDS011;11200;51.488;6.668;2024-03-06T08:08:20;15.18;;;10.80;;
22070;SDS011;11200;51.488;6.668;2024-03-06T08:10:46;14.25;;;10.38;;
22070;SDS011;11200;51.488;6.668;2024-03-06T08:13:13;16.08;;;11.55;;
22070;SDS011;11200;51.488;6.668;2024-03-06T08:15:39;15.65;;;11.30;;
22070;SDS011;11200;51.488;6.668;2024-03-06T08:18:05;17.05;;;10.93;;
22070;SDS011;11200;51.488;6.668;2024-03-06T08:20:31;20.48;;;12.32;;
22070;SDS011;11200;51.488;6.668;2024-03-06T08:22:58;16.17;;;12.07;;
22070;SDS011;11200;51.488;6.668;2024-03-06T08:25:24;17.15;;;11.48;;
22070;SDS011;11200;51.488;6.668;2024-03-06T08:27:50;17.77;;;11.95;;
22070;SDS011;11200;51.488;6.668;2024-03-06T08:30:16;17.25;;;12.65;;
22070;SDS011;11200;51.488;6.668;2024-03-06T08:32:42;17.08;;;12.02;;
22070;SDS011;11200;51.488;6.668;2024-03-06T08:35:09;17.20;;;12.32;;
22070;SDS011;11200;51.488;6.668;2024-03-06T08:37:36;16.75;;;12.90;;
22070;SDS011;11200;51.488;6.668;2024-03-06T08:40:02;16.25;;;11.95;;
22070;SDS011;11200;51.488;6.668;2024-03-06T08:42:28;17.08;;;12.45;;
22070;SDS011;11200;51.488;6.668;2024-03-06T08:44:54;17.08;;;12.15;;
22070;SDS011;11200;51.488;6.668;2024-03-06T08:47:21;16.48;;;12.57;;
22070;SDS011;11200;51.488;6.668;2024-03-06T08:49:47;19.23;;;13.32;;
22070;SDS011;11200;51.488;6.668;2024-03-06T08:52:13;16.65;;;12.60;;
22070;SDS011;11200;51.488;6.668;2024-03-06T08:54:40;17.55;;;12.73;;
22070;SDS011;11200;51.488;6.668;2024-03-06T08:57:10;16.27;;;12.55;;
22070;SDS011;11200;51.488;6.668;2024-03-06T08:59:36;17.00;;;12.60;;
22070;SDS011;11200;51.488;6.668;2024-03-06T09:02:18;17.35;;;12.60;;
22070;SDS011;11200;51.488;6.668;2024-03-06T09:04:44;16.55;;;12.70;;
22070;SDS011;11200;51.488;6.668;2024-03-06T09:07:11;14.85;;;12.07;;
22070;SDS011;11200;51.488;6.668;2024-03-06T09:09:37;15.13;;;11.45;;
22070;SDS011;11200;51.488;6.668;2024-03-06T09:12:04;15.77;;;11.90;;
22070;SDS011;11200;51.488;6.668;2024-03-06T09:14:33;16.48;;;12.18;;
22070;SDS011;11200;51.488;6.668;2024-03-06T09:17:00;17.70;;;12.27;;
22070;SDS011;11200;51.488;6.668;2024-03-06T09:19:26;14.30;;;11.75;;
22070;SDS011;11200;51.488;6.668;2024-03-06T09:21:52;14.13;;;11.63;;
22070;SDS011;11200;51.488;6.668;2024-03-06T09:24:20;16.13;;;12.10;;
22070;SDS011;11200;51.488;6.668;2024-03-06T09:26:47;14.82;;;11.38;;
22070;SDS011;11200;51.488;6.668;2024-03-06T09:29:13;13.60;;;10.85;;
22070;SDS011;11200;51.488;6.668;2024-03-06T09:31:39;14.38;;;11.48;;
22070;SDS011;11200;51.488;6.668;2024-03-06T09:34:05;13.93;;;11.65;;
22070;SDS011;11200;51.488;6.668;2024-03-06T09:36:31;13.05;;;11.10;;
22070;SDS011;11200;51.488;6.668;2024-03-06T09:38:58;13.02;;;10.88;;
22070;SDS011;11200;51.488;6.668;2024-03-06T09:41:24;13.57;;;11.48;;
22070;SDS011;11200;51.488;6.668;2024-03-06T09:43:50;12.13;;;10.32;;
22070;SDS011;11200;51.488;6.668;2024-03-06T09:46:17;13.75;;;10.90;;
22070;SDS011;11200;51.488;6.668;2024-03-06T09:48:47;11.77;;;10.40;;
22070;SDS011;11200;51.488;6.668;2024-03-06T09:51:13;12.18;;;10.85;;
22070;SDS011;11200;51.488;6.668;2024-03-06T09:53:39;11.73;;;10.40;;
22070;SDS011;11200;51.488;6.668;2024-03-06T09:56:05;13.30;;;10.60;;
22070;SDS011;11200;51.488;6.668;2024-03-06T09:58:32;11.35;;;10.18;;
22070;SDS011;11200;51.488;6.668;2024-03-06T10:00:58;11.18;;;9.20;;
22070;SDS011;11200;51.488;6.668;2024-03-06T10:03:25;11.10;;;8.98;;
22070;SDS011;11200;51.488;6.668;2024-03-06T10:05:52;12.43;;;10.23;;
22070;SDS011;11200;51.488;6.668;2024-03-06T10:08:19;12.60;;;10.73;;
22070;SDS011;11200;51.488;6.668;2024-03-06T10:10:47;11.57;;;9.98;;
22070;SDS011;11200;51.488;6.668;2024-03-06T10:13:15;13.52;;;10.70;;
22070;SDS011;11200;51.488;6.668;2024-03-06T10:15:42;13.30;;;10.65;;
22070;SDS011;11200;51.488;6.668;2024-03-06T10:20:37;12.90;;;11.00;;
22070;SDS011;11200;51.488;6.668;2024-03-06T10:23:03;13.40;;;11.02;;
22070;SDS011;11200;51.488;6.668;2024-03-06T10:25:29;12.80;;;10.32;;
22070;SDS011;11200;51.488;6.668;2024-03-06T10:28:08;12.88;;;11.40;;
22070;SDS011;11200;51.488;6.668;2024-03-06T10:30:38;12.52;;;10.68;;
22070;SDS011;11200;51.488;6.668;2024-03-06T10:33:07;14.88;;;11.55;;
22070;SDS011;11200;51.488;6.668;2024-03-06T10:35:34;13.23;;;11.10;;
22070;SDS011;11200;51.488;6.668;2024-03-06T10:38:02;14.65;;;12.60;;
22070;SDS011;11200;51.488;6.668;2024-03-06T10:40:30;15.57;;;12.93;;
22070;SDS011;11200;51.488;6.668;2024-03-06T10:42:57;15.68;;;12.48;;
22070;SDS011;11200;51.488;6.668;2024-03-06T10:45:23;14.50;;;12.88;;
22070;SDS011;11200;51.488;6.668;2024-03-06T10:47:51;14.50;;;12.30;;
22070;SDS011;11200;51.488;6.668;2024-03-06T10:50:18;16.10;;;14.25;;
22070;SDS011;11200;51.488;6.668;2024-03-06T10:52:44;19.17;;;14.55;;
22070;SDS011;11200;51.488;6.668;2024-03-06T10:55:12;16.35;;;13.93;;
22070;SDS011;11200;51.488;6.668;2024-03-06T10:57:38;19.52;;;15.52;;
22070;SDS011;11200;51.488;6.668;2024-03-06T11:00:04;21.98;;;16.95;;
22070;SDS011;11200;51.488;6.668;2024-03-06T11:02:31;21.40;;;15.80;;
22070;SDS011;11200;51.488;6.668;2024-03-06T11:04:57;21.42;;;17.83;;
22070;SDS011;11200;51.488;6.668;2024-03-06T11:07:24;25.23;;;19.42;;
22070;SDS011;11200;51.488;6.668;2024-03-06T11:09:50;23.75;;;18.98;;
22070;SDS011;11200;51.488;6.668;2024-03-06T11:12:35;25.88;;;19.75;;
22070;SDS011;11200;51.488;6.668;2024-03-06T11:15:15;25.15;;;19.58;;
22070;SDS011;11200;51.488;6.668;2024-03-06T11:17:45;25.27;;;19.80;;
22070;SDS011;11200;51.488;6.668;2024-03-06T11:20:18;27.23;;;21.23;;
22070;SDS011;11200;51.488;6.668;2024-03-06T11:28:09;25.80;;;21.35;;
22070;SDS011;11200;51.488;6.668;2024-03-06T11:30:44;28.60;;;21.95;;
22070;SDS011;11200;51.488;6.668;2024-03-06T11:33:11;25.58;;;20.75;;
22070;SDS011;11200;51.488;6.668;2024-03-06T11:35:38;27.60;;;22.10;;
22070;SDS011;11200;51.488;6.668;2024-03-06T11:38:05;28.17;;;20.92;;
22070;SDS011;11200;51.488;6.668;2024-03-06T11:40:31;26.48;;;20.58;;
22070;SDS011;11200;51.488;6.668;2024-03-06T11:43:21;28.23;;;21.88;;
22070;SDS011;11200;51.488;6.668;2024-03-06T11:45:44;26.15;;;20.20;;
22070;SDS011;11200;51.488;6.668;2024-03-06T11:48:10;26.50;;;20.63;;
22070;SDS011;11200;51.488;6.668;2024-03-06T11:50:44;24.38;;;19.48;;
22070;SDS011;11200;51.488;6.668;2024-03-06T11:53:11;24.75;;;19.52;;
22070;SDS011;11200;51.488;6.668;2024-03-06T11:55:37;24.02;;;19.10;;
22070;SDS011;11200;51.488;6.668;2024-03-06T11:58:04;23.77;;;18.85;;
22070;SDS011;11200;51.488;6.668;2024-03-06T12:00:32;21.25;;;17.83;;
22070;SDS011;11200;51.488;6.668;2024-03-06T12:02:58;22.80;;;18.45;;
22070;SDS011;11200;51.488;6.668;2024-03-06T12:05:24;22.67;;;17.73;;
22070;SDS011;11200;51.488;6.668;2024-03-06T12:07:52;20.08;;;16.42;;
22070;SDS011;11200;51.488;6.668;2024-03-06T12:10:19;19.77;;;15.93;;
22070;SDS011;11200;51.488;6.668;2024-03-06T12:12:45;20.83;;;16.92;;
22070;SDS011;11200;51.488;6.668;2024-03-06T12:15:11;20.02;;;16.15;;
22070;SDS011;11200;51.488;6.668;2024-03-06T12:17:45;19.80;;;16.05;;
22070;SDS011;11200;51.488;6.668;2024-03-06T12:20:12;18.63;;;15.98;;
22070;SDS011;11200;51.488;6.668;2024-03-06T12:22:45;20.70;;;16.90;;
22070;SDS011;11200;51.488;6.668;2024-03-06T12:25:17;23.17;;;19.05;;
22070;SDS011;11200;51.488;6.668;2024-03-06T12:27:44;21.80;;;17.65;;
22070;SDS011;11200;51.488;6.668;2024-03-06T12:30:10;19.58;;;17.08;;
22070;SDS011;11200;51.488;6.668;2024-03-06T12:32:38;19.88;;;16.67;;
22070;SDS011;11200;51.488;6.668;2024-03-06T12:35:04;22.70;;;17.63;;
22070;SDS011;11200;51.488;6.668;2024-03-06T12:37:31;20.15;;;16.90;;
22070;SDS011;11200;51.488;6.668;2024-03-06T12:39:57;21.55;;;17.35;;
22070;SDS011;11200;51.488;6.668;2024-03-06T12:42:23;21.80;;;17.35;;
22070;SDS011;11200;51.488;6.668;2024-03-06T12:44:49;21.42;;;17.15;;
22070;SDS011;11200;51.488;6.668;2024-03-06T12:47:15;19.70;;;17.05;;
22070;SDS011;11200;51.488;6.668;2024-03-06T12:49:41;19.00;;;16.30;;
22070;SDS011;11200;51.488;6.668;2024-03-06T12:52:07;21.45;;;17.02;;
22070;SDS011;11200;51.488;6.668;2024-03-06T12:54:34;20.73;;;17.70;;
22070;SDS011;11200;51.488;6.668;2024-03-06T12:57:00;22.08;;;17.60;;
22070;SDS011;11200;51.488;6.668;2024-03-06T12:59:26;19.30;;;17.20;;
22070;SDS011;11200;51.488;6.668;2024-03-06T13:01:52;21.77;;;17.38;;
22070;SDS011;11200;51.488;6.668;2024-03-06T13:04:19;20.65;;;17.23;;
22070;SDS011;11200;51.488;6.668;2024-03-06T13:06:45;21.15;;;17.30;;
22070;SDS011;11200;51.488;6.668;2024-03-06T13:09:11;20.38;;;16.75;;
22070;SDS011;11200;51.488;6.668;2024-03-06T13:11:37;20.88;;;16.88;;
22070;SDS011;11200;51.488;6.668;2024-03-06T13:14:03;19.63;;;16.60;;
22070;SDS011;11200;51.488;6.668;2024-03-06T13:16:29;21.63;;;16.67;;
22070;SDS011;11200;51.488;6.668;2024-03-06T13:18:55;21.35;;;17.08;;
22070;SDS011;11200;51.488;6.668;2024-03-06T13:21:22;19.25;;;16.58;;
22070;SDS011;11200;51.488;6.668;2024-03-06T13:23:48;18.63;;;16.40;;
22070;SDS011;11200;51.488;6.668;2024-03-06T13:26:14;19.52;;;16.00;;
22070;SDS011;11200;51.488;6.668;2024-03-06T13:28:41;19.38;;;16.38;;
22070;SDS011;11200;51.488;6.668;2024-03-06T13:31:07;18.10;;;14.95;;
22070;SDS011;11200;51.488;6.668;2024-03-06T13:33:33;16.92;;;14.57;;
22070;SDS011;11200;51.488;6.668;2024-03-06T13:35:59;18.55;;;14.63;;
22070;SDS011;11200;51.488;6.668;2024-03-06T13:38:25;17.20;;;14.45;;
22070;SDS011;11200;51.488;6.668;2024-03-06T13:40:51;16.52;;;14.23;;
22070;SDS011;11200;51.488;6.668;2024-03-06T13:43:17;17.90;;;14.93;;
22070;SDS011;11200;51.488;6.668;2024-03-06T13:45:48;16.52;;;13.77;;
22070;SDS011;11200;51.488;6.668;2024-03-06T13:48:15;17.23;;;14.55;;
22070;SDS011;11200;51.488;6.668;2024-03-06T13:50:42;15.52;;;13.68;;
22070;SDS011;11200;51.488;6.668;2024-03-06T13:53:09;18.08;;;14.65;;
22070;SDS011;11200;51.488;6.668;2024-03-06T13:55:35;17.48;;;14.18;;
22070;SDS011;11200;51.488;6.668;2024-03-06T13:58:01;16.13;;;13.88;;
22070;SDS011;11200;51.488;6.668;2024-03-06T14:00:27;15.98;;;14.27;;
22070;SDS011;11200;51.488;6.668;2024-03-06T14:02:53;17.20;;;14.02;;
22070;SDS011;11200;51.488;6.668;2024-03-06T14:05:19;15.80;;;14.10;;
22070;SDS011;11200;51.488;6.668;2024-03-06T14:07:50;16.42;;;13.70;;
22070;SDS011;11200;51.488;6.668;2024-03-06T14:10:16;15.45;;;13.82;;
22070;SDS011;11200;51.488;6.668;2024-03-06T14:12:46;15.57;;;13.25;;
22070;SDS011;11200;51.488;6.668;2024-03-06T14:15:16;16.55;;;13.90;;
22070;SDS011;11200;51.488;6.668;2024-03-06T14:17:43;17.50;;;14.15;;
22070;SDS011;11200;51.488;6.668;2024-03-06T14:20:10;16.80;;;14.38;;
22070;SDS011;11200;51.488;6.668;2024-03-06T14:22:43;15.70;;;13.48;;
22070;SDS011;11200;51.488;6.668;2024-03-06T14:25:09;18.20;;;13.90;;
22070;SDS011;11200;51.488;6.668;2024-03-06T14:27:35;17.83;;;13.35;;
22070;SDS011;11200;51.488;6.668;2024-03-06T14:30:02;16.67;;;14.50;;
22070;SDS011;11200;51.488;6.668;2024-03-06T14:32:28;14.77;;;12.77;;
22070;SDS011;11200;51.488;6.668;2024-03-06T14:34:54;15.45;;;12.82;;
22070;SDS011;11200;51.488;6.668;2024-03-06T14:37:20;17.77;;;13.57;;